Time;durP1;ratioP1;P1;durP2;ratioP2;P2;SDS_P1;SDS_P2;PMS_P1;PMS_P2;Temp;Humidity;BMP_temperature;BMP_pressure;BME280_temperature;BME280_humidity;BME280_pressure;Samples;Min_cycle;Max_cycle;Signal;HPM_P1;HPM_P2
2023/04/22 00:00:27;;;;;;;9.75;7.25;;;12.30;11.50;;;;;;7367245;19;20010;-70
2023/04/22 00:03:01;;;;;;;8.82;7.32;;;12.20;11.40;;;;;;7372489;19;20493;-70
2023/04/22 00:05:31;;;;;;;8.82;6.65;;;12.20;10.80;;;;;;7371149;19;20010;-70
2023/04/22 00:08:01;;;;;;;12.73;7.07;;;12.10;10.00;;;;;;7373084;19;20027;-70
2023/04/22 00:10:31;;;;;;;9.68;7.18;;;12.10;9.30;;;;;;7390260;19;20022;-70
2023/04/22 00:13:01;;;;;;;11.68;7.07;;;12.00;11.40;;;;;;7370905;19;20015;-72
2023/04/22 00:15:31;;;;;;;8.73;7.00;;;12.00;12.30;;;;;;7371447;19;20018;-70
2023/04/22 00:18:06;;;;;;;8.55;6.82;;;12.10;11.00;;;;;;7372909;19;20018;-71
2023/04/22 00:20:36;;;;;;;8.52;7.00;;;12.00;11.50;;;;;;7366987;19;20077;-70
2023/04/22 00:23:06;;;;;;;9.57;6.97;;;12.10;10.90;;;;;;7371996;19;20035;-70
2023/04/22 00:25:36;;;;;;;9.93;6.65;;;12.00;12.00;;;;;;7392472;19;20025;-70
2023/04/22 00:28:06;;;;;;;10.07;7.18;;;11.90;13.40;;;;;;7371626;19;20010;-70
2023/04/22 00:30:37;;;;;;;10.98;7.45;;;11.90;14.00;;;;;;7365913;19;20017;-70
2023/04/22 00:33:09;;;;;;;10.20;7.03;;;11.90;12.90;;;;;;7372002;19;20006;-70
2023/04/22 00:35:39;;;;;;;12.35;7.28;;;11.90;13.10;;;;;;7371391;19;20490;-70
2023/04/22 00:38:09;;;;;;;10.98;7.35;;;11.90;14.10;;;;;;7371129;19;20010;-70
2023/04/22 00:40:39;;;;;;;9.00;7.00;;;11.90;15.20;;;;;;7389147;19;20014;-71
2023/04/22 00:43:10;;;;;;;11.50;7.55;;;11.90;15.60;;;;;;7371301;19;20038;-71
2023/04/22 00:45:41;;;;;;;10.38;7.25;;;11.80;14.20;;;;;;7370299;19;20408;-71
2023/04/22 00:48:14;;;;;;;9.43;7.47;;;11.90;13.90;;;;;;7372185;19;20007;-71
2023/04/22 00:50:44;;;;;;;10.80;7.68;;;11.90;12.90;;;;;;7366933;19;20524;-70
2023/04/22 00:53:14;;;;;;;9.95;7.53;;;11.90;12.30;;;;;;7371508;19;20010;-70
2023/04/22 00:55:44;;;;;;;9.45;7.25;;;11.80;10.70;;;;;;7390576;19;20011;-70
2023/04/22 00:58:14;;;;;;;9.18;7.30;;;11.90;11.20;;;;;;7392097;19;20022;-69
2023/04/22 01:00:44;;;;;;;9.23;7.40;;;11.90;11.00;;;;;;7367065;19;20037;-69
2023/04/22 01:03:17;;;;;;;9.73;7.78;;;11.80;10.60;;;;;;7370783;19;20129;-70
2023/04/22 01:05:47;;;;;;;11.70;7.57;;;11.80;10.00;;;;;;7369977;19;20010;-70
2023/04/22 01:08:18;;;;;;;11.75;7.22;;;11.90;9.90;;;;;;7371518;19;20011;-70
2023/04/22 01:10:48;;;;;;;8.55;6.70;;;11.80;9.00;;;;;;7367905;19;20014;-71
2023/04/22 01:13:18;;;;;;;9.73;7.25;;;11.80;9.30;;;;;;7390436;19;20343;-70
2023/04/22 01:15:48;;;;;;;9.70;7.43;;;11.80;7.90;;;;;;7369871;19;20018;-69
2023/04/22 01:18:21;;;;;;;9.60;7.28;;;11.90;7.30;;;;;;7371166;19;20019;-70
2023/04/22 01:20:51;;;;;;;9.68;7.63;;;11.90;7.80;;;;;;7366526;19;20015;-70
2023/04/22 01:23:24;;;;;;;9.15;7.57;;;11.90;8.10;;;;;;7367893;19;20038;-70
2023/04/22 01:25:54;;;;;;;12.32;8.45;;;11.90;8.60;;;;;;7368810;19;20015;-70
2023/04/22 01:28:25;;;;;;;13.35;9.18;;;11.90;9.10;;;;;;7390471;19;20418;-70
2023/04/22 01:30:55;;;;;;;14.80;9.35;;;11.90;9.10;;;;;;7366141;19;20021;-70
2023/04/22 01:33:26;;;;;;;11.13;7.93;;;11.90;9.10;;;;;;7368003;19;20026;-70
2023/04/22 01:35:55;;;;;;;12.02;9.05;;;11.80;9.90;;;;;;7369669;19;20006;-70
2023/04/22 01:38:32;;;;;;;11.63;9.05;;;11.80;10.60;;;;;;7368975;19;20021;-70
2023/04/22 01:41:03;;;;;;;11.98;8.27;;;11.80;11.70;;;;;;7366679;19;20022;-71
2023/04/22 01:43:35;;;;;;;10.63;8.43;;;11.80;11.50;;;;;;7386847;19;20078;-69
2023/04/22 01:46:07;;;;;;;9.23;8.30;;;11.80;12.00;;;;;;7368447;19;20611;-70
2023/04/22 01:48:37;;;;;;;11.18;8.55;;;11.80;12.20;;;;;;7368360;19;20010;-70
2023/04/22 01:51:07;;;;;;;10.95;8.55;;;11.80;11.80;;;;;;7366447;19;20383;-70
2023/04/22 01:53:40;;;;;;;10.75;8.55;;;11.80;11.10;;;;;;7368308;19;20644;-70
2023/04/22 01:56:10;;;;;;;9.82;8.25;;;11.90;10.50;;;;;;7369492;19;20011;-70
2023/04/22 01:58:41;;;;;;;10.23;8.60;;;11.90;9.90;;;;;;7391243;19;20014;-69
2023/04/22 02:01:12;;;;;;;9.52;8.35;;;11.90;9.70;;;;;;7365307;19;20007;-70
2023/04/22 02:03:42;;;;;;;10.20;8.13;;;11.90;9.20;;;;;;7366032;19;20038;-69
2023/04/22 02:06:13;;;;;;;11.82;7.88;;;11.90;9.10;;;;;;7369297;19;20011;-69
2023/04/22 02:08:45;;;;;;;11.73;9.00;;;11.90;9.60;;;;;;7368941;19;20026;-70
2023/04/22 02:11:15;;;;;;;12.93;8.38;;;11.90;9.70;;;;;;7366137;19;20405;-70
2023/04/22 02:13:45;;;;;;;11.20;8.20;;;11.90;10.10;;;;;;7372584;19;20482;-69
2023/04/22 02:16:15;;;;;;;10.43;8.23;;;11.80;10.60;;;;;;7390811;19;20029;-69
2023/04/22 02:18:45;;;;;;;10.27;8.43;;;11.80;12.20;;;;;;7367745;19;20022;-70
2023/04/22 02:21:15;;;;;;;11.10;8.18;;;11.70;12.00;;;;;;7366791;19;20426;-70
2023/04/22 02:23:47;;;;;;;9.95;7.68;;;11.80;12.00;;;;;;7367866;19;20021;-70
2023/04/22 02:26:17;;;;;;;13.55;8.05;;;11.70;11.70;;;;;;7366737;19;20006;-70
2023/04/22 02:28:47;;;;;;;10.13;8.15;;;11.70;12.30;;;;;;7368805;19;20014;-70
2023/04/22 02:31:17;;;;;;;11.38;8.43;;;11.70;13.20;;;;;;7387973;19;20015;-70
2023/04/22 02:33:47;;;;;;;11.10;8.60;;;11.60;14.10;;;;;;7365962;19;20391;-70
2023/04/22 02:36:17;;;;;;;11.85;8.77;;;11.60;14.70;;;;;;7369076;19;20013;-70
2023/04/22 02:38:50;;;;;;;13.98;9.50;;;11.60;14.30;;;;;;7368216;19;20013;-70
2023/04/22 02:41:20;;;;;;;14.30;8.80;;;11.60;13.70;;;;;;7365821;19;20015;-70
2023/04/22 02:43:50;;;;;;;11.60;9.27;;;11.60;12.70;;;;;;7367224;19;20359;-71
2023/04/22 02:46:20;;;;;;;13.73;8.90;;;11.60;13.00;;;;;;7388412;19;20010;-69
2023/04/22 02:48:50;;;;;;;11.32;8.88;;;11.60;13.00;;;;;;7367084;19;20472;-70
2023/04/22 02:51:20;;;;;;;10.70;8.70;;;11.60;12.50;;;;;;7364704;19;20368;-71
2023/04/22 02:53:53;;;;;;;11.90;8.30;;;11.60;12.50;;;;;;7366234;19;20018;-70
2023/04/22 02:56:23;;;;;;;12.13;7.97;;;11.60;12.50;;;;;;7366803;19;20023;-71
2023/04/22 02:58:53;;;;;;;9.48;7.93;;;11.60;12.00;;;;;;7366777;19;20474;-70
2023/04/22 03:01:25;;;;;;;10.82;7.93;;;11.70;11.20;;;;;;7386922;19;20478;-70
2023/04/22 03:03:55;;;;;;;8.98;7.88;;;11.60;11.60;;;;;;7364631;19;20017;-70
2023/04/22 03:06:25;;;;;;;9.05;7.47;;;11.60;12.00;;;;;;7366831;19;20010;-69
2023/04/22 03:08:58;;;;;;;9.25;7.95;;;11.60;11.60;;;;;;7365728;19;20019;-70
2023/04/22 03:11:27;;;;;;;9.57;7.63;;;11.60;12.00;;;;;;7363181;19;20117;-71
2023/04/22 03:13:57;;;;;;;11.65;8.50;;;11.60;12.40;;;;;;7366457;19;20466;-70
2023/04/22 03:16:27;;;;;;;10.63;8.13;;;11.50;13.00;;;;;;7386819;19;20014;-70
2023/04/22 03:18:57;;;;;;;10.18;8.20;;;11.50;13.80;;;;;;7365590;19;20021;-70
2023/04/22 03:21:27;;;;;;;11.23;8.38;;;11.50;13.70;;;;;;7364222;19;20375;-70
2023/04/22 03:24:01;;;;;;;10.63;8.52;;;11.50;14.30;;;;;;7366421;19;20373;-69
2023/04/22 03:26:30;;;;;;;11.70;9.20;;;11.40;14.20;;;;;;7364755;19;20011;-71
2023/04/22 03:29:00;;;;;;;13.27;9.77;;;11.40;14.20;;;;;;7366128;19;20031;-71
2023/04/22 03:31:30;;;;;;;11.88;9.48;;;11.40;14.10;;;;;;7386064;19;20020;-70
2023/04/22 03:34:00;;;;;;;11.75;9.73;;;11.40;14.10;;;;;;7364970;19;20011;-71
2023/04/22 03:36:30;;;;;;;11.77;9.23;;;11.40;13.90;;;;;;7365870;19;20010;-70
2023/04/22 03:39:03;;;;;;;12.88;9.98;;;11.40;14.00;;;;;;7366250;19;20094;-70
2023/04/22 03:41:33;;;;;;;11.38;9.35;;;11.30;14.50;;;;;;7363639;19;20018;-70
2023/04/22 03:44:03;;;;;;;13.63;10.43;;;11.40;14.30;;;;;;7365798;19;21409;-71
2023/04/22 03:46:33;;;;;;;11.63;9.00;;;11.30;14.70;;;;;;7386128;19;20027;-70
2023/04/22 03:49:04;;;;;;;11.50;9.13;;;11.20;15.70;;;;;;7364845;19;20018;-71
2023/04/22 03:51:34;;;;;;;14.35;11.02;;;11.10;16.40;;;;;;7363357;19;20031;-71
2023/04/22 03:54:06;;;;;;;14.95;9.65;;;11.10;16.50;;;;;;7364222;19;20105;-70
2023/04/22 03:56:36;;;;;;;11.57;8.52;;;11.10;16.10;;;;;;7366131;19;20062;-70
2023/04/22 03:59:06;;;;;;;10.88;8.98;;;11.00;15.90;;;;;;7365748;19;20356;-70
2023/04/22 04:01:36;;;;;;;11.07;8.52;;;11.00;15.80;;;;;;7385984;19;20011;-70
2023/04/22 04:04:06;;;;;;;10.68;8.32;;;11.00;15.60;;;;;;7362287;19;20027;-70
2023/04/22 04:06:36;;;;;;;10.55;8.50;;;10.90;15.60;;;;;;7368020;19;20114;-69
2023/04/22 04:09:09;;;;;;;10.50;7.40;;;10.90;15.90;;;;;;7372154;19;20486;-70
2023/04/22 04:11:39;;;;;;;13.60;8.32;;;10.90;15.70;;;;;;7372017;19;20081;-71
2023/04/22 04:14:09;;;;;;;9.98;8.45;;;10.80;16.20;;;;;;7372245;19;20074;-71
2023/04/22 04:16:39;;;;;;;10.73;8.15;;;10.80;16.10;;;;;;7394070;19;20023;-68
2023/04/22 04:19:09;;;;;;;10.13;8.15;;;10.80;15.60;;;;;;7371159;19;20422;-70
2023/04/22 04:21:40;;;;;;;10.82;8.10;;;10.80;15.60;;;;;;7371560;19;20021;-70
2023/04/22 04:24:12;;;;;;;10.65;8.75;;;10.80;16.10;;;;;;7371250;19;20054;-70
2023/04/22 04:26:42;;;;;;;11.18;9.55;;;10.70;16.40;;;;;;7373248;19;20416;-70
2023/04/22 04:29:12;;;;;;;9.57;8.55;;;10.70;17.00;;;;;;7370029;19;20478;-70
2023/04/22 04:31:42;;;;;;;11.75;8.95;;;10.60;18.20;;;;;;7393382;19;20024;-70
2023/04/22 04:34:13;;;;;;;12.57;9.18;;;10.60;19.00;;;;;;7371446;19;20014;-71
2023/04/22 04:36:45;;;;;;;12.38;10.25;;;10.60;19.20;;;;;;7372677;19;20073;-70
2023/04/22 04:39:18;;;;;;;16.13;10.18;;;10.60;20.20;;;;;;7368992;19;20534;-70
2023/04/22 04:41:47;;;;;;;13.15;10.10;;;10.60;19.90;;;;;;7370726;19;20018;-71
2023/04/22 04:44:19;;;;;;;11.60;9.70;;;10.60;19.80;;;;;;7371071;19;20034;-71
2023/04/22 04:46:50;;;;;;;11.70;9.93;;;10.60;20.10;;;;;;7370276;19;20014;-70
2023/04/22 04:49:20;;;;;;;11.68;10.00;;;10.60;20.10;;;;;;7390591;19;20475;-71
2023/04/22 04:51:50;;;;;;;12.00;10.13;;;10.60;20.10;;;;;;7371286;19;20014;-70
2023/04/22 04:54:23;;;;;;;11.57;9.63;;;10.70;20.30;;;;;;7369279;19;20014;-70
2023/04/22 04:56:52;;;;;;;12.25;9.20;;;10.60;20.00;;;;;;7372021;19;20014;-71
2023/04/22 04:59:22;;;;;;;13.95;9.70;;;10.70;19.40;;;;;;7368158;19;20010;-70
2023/04/22 05:01:52;;;;;;;13.13;9.82;;;10.80;19.10;;;;;;7367286;19;20359;-71
2023/04/22 05:04:23;;;;;;;12.35;10.48;;;10.80;19.20;;;;;;7391788;19;20010;-71
2023/04/22 05:06:54;;;;;;;15.40;10.80;;;10.80;19.20;;;;;;7369554;19;20102;-70
2023/04/22 05:09:26;;;;;;;16.50;9.38;;;10.80;19.80;;;;;;7366771;19;20017;-70
2023/04/22 05:11:56;;;;;;;13.98;9.60;;;10.80;20.20;;;;;;7371262;19;20010;-70
2023/04/22 05:14:26;;;;;;;14.63;9.85;;;10.70;19.90;;;;;;7369868;19;20014;-69
2023/04/22 05:16:56;;;;;;;10.95;9.65;;;10.80;19.70;;;;;;7369933;19;20018;-70
2023/04/22 05:19:27;;;;;;;13.68;10.18;;;10.80;19.90;;;;;;7388663;19;20018;-70
2023/04/22 05:21:57;;;;;;;14.57;10.25;;;10.80;20.10;;;;;;7370333;19;20011;-70
2023/04/22 05:24:29;;;;;;;11.02;9.40;;;10.80;19.80;;;;;;7368553;19;20017;-71
2023/04/22 05:26:59;;;;;;;12.82;10.15;;;10.90;19.90;;;;;;7370196;19;20486;-71
2023/04/22 05:29:30;;;;;;;13.07;9.65;;;10.90;19.10;;;;;;7366502;19;20525;-71
2023/04/22 05:32:00;;;;;;;14.10;9.60;;;11.00;18.00;;;;;;7368764;19;20017;-69
2023/04/22 05:34:30;;;;;;;23.80;9.57;;;11.10;17.30;;;;;;7390683;19;20038;-69
2023/04/22 05:37:00;;;;;;;12.13;9.23;;;11.10;15.90;;;;;;7369979;19;20021;-70
2023/04/22 05:39:32;;;;;;;13.02;8.95;;;11.20;15.80;;;;;;7365206;19;20362;-70
2023/04/22 05:42:02;;;;;;;16.48;9.18;;;11.30;13.90;;;;;;7369376;19;20015;-70
2023/04/22 05:44:32;;;;;;;15.88;9.10;;;11.30;13.00;;;;;;7368359;19;20355;-70
2023/04/22 05:47:02;;;;;;;14.05;8.82;;;11.40;12.90;;;;;;7368652;19;20019;-70
2023/04/22 05:49:32;;;;;;;14.65;9.40;;;11.50;12.40;;;;;;7388045;19;20021;-70
2023/04/22 05:52:01;;;;;;;11.65;8.63;;;11.50;10.90;;;;;;7368742;19;20018;-71
2023/04/22 05:54:34;;;;;;;11.82;7.60;;;11.50;10.20;;;;;;7366829;19;20018;-69
2023/04/22 05:57:04;;;;;;;11.30;7.93;;;11.60;10.50;;;;;;7368905;19;20041;-70
2023/04/22 05:59:34;;;;;;;14.10;8.00;;;11.60;8.90;;;;;;7366345;19;20007;-69
2023/04/22 06:02:04;;;;;;;10.55;8.40;;;11.60;8.90;;;;;;7367628;19;20026;-70
2023/04/22 06:04:34;;;;;;;11.35;8.38;;;11.80;8.10;;;;;;7389954;19;20025;-68
2023/04/22 06:07:06;;;;;;;12.63;7.78;;;11.90;6.10;;;;;;7368141;19;20014;-69
2023/04/22 06:09:39;;;;;;;12.45;7.35;;;12.10;3.40;;;;;;7365849;19;20055;-69
2023/04/22 06:12:09;;;;;;;10.20;7.53;;;12.20;1.40;;;;;;7368640;19;20019;-71
2023/04/22 06:14:39;;;;;;;9.45;7.45;;;12.40;1.00;;;;;;7368545;19;20078;-70
2023/04/22 06:17:09;;;;;;;8.77;6.70;;;12.70;1.00;;;;;;7368711;19;20466;-70
2023/04/22 06:19:39;;;;;;;9.02;7.63;;;12.80;1.00;;;;;;7387248;19;20015;-69
2023/04/22 06:22:10;;;;;;;8.25;6.72;;;12.90;1.00;;;;;;7367618;19;20014;-69
2023/04/22 06:24:42;;;;;;;10.85;7.47;;;13.00;1.00;;;;;;7366184;19;20472;-71
2023/04/22 06:27:14;;;;;;;9.10;6.80;;;13.10;1.00;;;;;;7368380;19;20087;-69
2023/04/22 06:29:44;;;;;;;9.73;7.00;;;13.10;1.00;;;;;;7363411;19;20018;-70
2023/04/22 06:32:14;;;;;;;12.45;7.22;;;12.90;1.00;;;;;;7366522;19;20013;-70
2023/04/22 06:34:44;;;;;;;9.93;6.82;;;13.00;1.00;;;;;;7381599;19;20495;-70
2023/04/22 06:37:14;;;;;;;9.15;7.03;;;13.10;1.00;;;;;;7389545;19;20007;-68
2023/04/22 06:39:47;;;;;;;11.02;7.40;;;13.20;1.00;;;;;;7364569;19;20014;-71
2023/04/22 06:42:17;;;;;;;8.82;6.47;;;13.40;1.00;;;;;;7366852;19;20010;-70
2023/04/22 06:44:46;;;;;;;9.38;6.60;;;13.40;1.00;;;;;;7365618;19;20585;-70
2023/04/22 06:47:17;;;;;;;8.48;7.07;;;13.30;1.00;;;;;;7367962;19;20015;-70
2023/04/22 06:49:47;;;;;;;7.28;6.15;;;13.50;1.00;;;;;;7363912;19;20010;-70
2023/04/22 06:52:17;;;;;;;8.25;6.85;;;13.50;1.00;;;;;;7387346;19;20021;-70
2023/04/22 06:54:49;;;;;;;9.02;6.93;;;13.40;1.00;;;;;;7365439;19;20022;-70
2023/04/22 06:57:19;;;;;;;8.05;6.63;;;13.50;1.00;;;;;;7366283;19;20372;-71
2023/04/22 06:59:49;;;;;;;9.05;6.68;;;13.50;1.00;;;;;;7364173;19;20025;-70
2023/04/22 07:02:19;;;;;;;7.68;6.47;;;13.50;1.00;;;;;;7367508;19;20022;-70
2023/04/22 07:04:49;;;;;;;7.82;6.53;;;13.60;1.00;;;;;;7364848;19;20014;-70
2023/04/22 07:07:20;;;;;;;8.43;6.78;;;13.60;1.00;;;;;;7387915;19;20016;-70
2023/04/22 07:09:52;;;;;;;9.00;6.45;;;13.80;1.00;;;;;;7362433;19;20119;-71
2023/04/22 07:12:23;;;;;;;9.63;6.60;;;13.90;1.00;;;;;;7367256;19;20037;-71
2023/04/22 07:14:53;;;;;;;6.97;6.00;;;14.10;1.00;;;;;;7364534;19;20023;-69
2023/04/22 07:17:23;;;;;;;9.23;6.60;;;14.20;1.00;;;;;;7366575;19;20082;-71
2023/04/22 07:19:53;;;;;;;8.05;6.10;;;14.30;1.00;;;;;;7362800;19;20014;-70
2023/04/22 07:22:23;;;;;;;8.35;6.78;;;14.20;1.00;;;;;;7388288;19;20022;-71
2023/04/22 07:24:59;;;;;;;9.07;6.72;;;14.30;1.00;;;;;;7364497;19;20406;-71
2023/04/22 07:27:29;;;;;;;7.30;5.97;;;14.50;1.00;;;;;;7367026;19;20018;-70
2023/04/22 07:29:59;;;;;;;7.43;5.82;;;14.80;1.00;;;;;;7362077;19;20014;-71
2023/04/22 07:32:29;;;;;;;10.73;6.45;;;15.20;1.00;;;;;;7366614;19;20013;-70
2023/04/22 07:34:59;;;;;;;7.95;6.63;;;15.30;1.00;;;;;;7365006;19;20021;-70
2023/04/22 07:37:29;;;;;;;9.20;6.10;;;15.40;1.00;;;;;;7387477;19;20062;-70
2023/04/22 07:40:02;;;;;;;6.47;5.43;;;15.30;1.00;;;;;;7362350;19;20110;-70
2023/04/22 07:42:32;;;;;;;7.95;5.72;;;15.80;1.00;;;;;;7373928;19;20011;-70
2023/04/22 07:45:02;;;;;;;8.63;5.75;;;16.10;1.00;;;;;;7370911;19;20018;-71
2023/04/22 07:47:32;;;;;;;6.50;4.93;;;16.00;1.00;;;;;;7373967;19;20014;-70
2023/04/22 07:50:02;;;;;;;6.22;5.35;;;16.00;1.00;;;;;;7367887;19;20018;-69
2023/04/22 07:52:32;;;;;;;6.68;4.82;;;16.40;1.00;;;;;;7395158;19;20007;-71
2023/04/22 07:55:05;;;;;;;6.05;4.90;;;16.10;1.00;;;;;;7371232;19;20386;-70
2023/04/22 07:57:37;;;;;;;6.80;5.40;;;16.20;1.00;;;;;;7372895;19;20042;-70
2023/04/22 08:00:09;;;;;;;7.30;4.82;;;16.50;1.00;;;;;;7367936;19;20077;-70
2023/04/22 08:02:39;;;;;;;5.97;4.53;;;16.50;1.00;;;;;;7373929;19;20021;-71
2023/04/22 08:05:10;;;;;;;7.80;4.68;;;16.40;1.00;;;;;;7371571;19;20014;-71
2023/04/22 08:07:40;;;;;;;6.75;5.03;;;16.60;1.00;;;;;;7393515;19;20018;-71
2023/04/22 08:10:13;;;;;;;11.85;5.85;;;16.60;1.00;;;;;;7368366;19;20515;-71
2023/04/22 08:12:43;;;;;;;5.82;5.22;;;16.40;1.00;;;;;;7371711;19;20011;-70
2023/04/22 08:15:13;;;;;;;9.45;4.70;;;16.30;1.00;;;;;;7369666;19;20010;-70
2023/04/22 08:17:43;;;;;;;6.07;4.95;;;16.20;1.00;;;;;;7372680;19;20002;-71
2023/04/22 08:20:14;;;;;;;8.20;5.03;;;16.20;1.00;;;;;;7368586;19;20003;-70
2023/04/22 08:22:44;;;;;;;8.82;5.45;;;16.20;1.00;;;;;;7391438;19;20014;-72
2023/04/22 08:25:17;;;;;;;8.40;5.88;;;16.20;1.00;;;;;;7392484;19;20072;-71
2023/04/22 08:27:47;;;;;;;7.47;5.57;;;16.40;1.00;;;;;;7371776;19;20107;-71
2023/04/22 08:30:17;;;;;;;8.57;5.85;;;16.30;1.00;;;;;;7365764;19;20014;-70
2023/04/22 08:32:47;;;;;;;7.43;5.05;;;16.40;1.00;;;;;;7371180;19;20139;-71
2023/04/22 08:35:17;;;;;;;7.10;5.18;;;16.50;1.00;;;;;;7369857;19;20187;-70
2023/04/22 08:37:47;;;;;;;7.45;4.18;;;16.60;1.00;;;;;;7370545;19;20015;-70
2023/04/22 08:40:20;;;;;;;11.02;4.05;;;16.80;1.00;;;;;;7388636;19;20014;-71
2023/04/22 08:42:51;;;;;;;3.88;3.47;;;17.00;1.00;;;;;;7371801;19;20006;-71
2023/04/22 08:45:21;;;;;;;3.55;3.08;;;17.30;1.00;;;;;;7367597;19;20034;-71
2023/04/22 08:47:51;;;;;;;4.00;3.40;;;17.50;1.00;;;;;;7369990;19;20611;-71
2023/04/22 08:50:22;;;;;;;5.30;3.22;;;17.60;1.00;;;;;;7366606;19;20014;-71
2023/04/22 08:52:52;;;;;;;6.63;3.47;;;17.90;1.00;;;;;;7369788;19;20017;-71
2023/04/22 08:55:25;;;;;;;4.72;3.00;;;18.10;1.00;;;;;;7391121;19;20371;-71
2023/04/22 08:57:56;;;;;;;3.78;3.17;;;18.20;1.00;;;;;;7368277;19;20525;-71
2023/04/22 09:00:26;;;;;;;6.53;3.90;;;18.20;1.00;;;;;;7366495;19;20018;-70
2023/04/22 09:02:56;;;;;;;6.47;4.05;;;18.50;1.00;;;;;;7370632;19;20011;-69
2023/04/22 09:05:27;;;;;;;4.53;3.38;;;18.60;1.00;;;;;;7368558;19;20021;-71
2023/04/22 09:07:57;;;;;;;5.80;3.38;;;18.70;1.00;;;;;;7369821;19;20025;-69
2023/04/22 09:10:31;;;;;;;7.82;5.28;;;18.30;1.00;;;;;;7387192;19;20103;-72
2023/04/22 09:13:05;;;;;;;4.30;3.30;;;18.40;1.00;;;;;;7369091;19;20332;-70
2023/04/22 09:15:35;;;;;;;4.72;3.38;;;18.70;1.00;;;;;;7369073;19;20018;-70
2023/04/22 09:18:05;;;;;;;4.40;3.50;;;19.00;1.00;;;;;;7368273;19;20003;-70
2023/04/22 09:20:35;;;;;;;4.93;3.35;;;18.80;1.00;;;;;;7366267;19;20017;-70
2023/04/22 09:23:06;;;;;;;4.72;3.47;;;19.00;1.00;;;;;;7370370;19;20365;-70
2023/04/22 09:25:40;;;;;;;5.20;3.50;;;19.40;1.00;;;;;;7391631;19;20015;-70
2023/04/22 09:28:13;;;;;;;4.43;3.13;;;19.30;1.00;;;;;;7369711;19;20102;-70
2023/04/22 09:30:45;;;;;;;5.63;3.40;;;19.30;1.00;;;;;;7365150;19;20040;-71
2023/04/22 09:33:16;;;;;;;4.60;3.17;;;19.40;1.00;;;;;;7370121;19;20012;-70
2023/04/22 09:35:46;;;;;;;4.03;2.97;;;19.00;1.00;;;;;;7369585;19;20082;-71
2023/04/22 09:38:16;;;;;;;6.30;3.53;;;19.40;1.00;;;;;;7369011;19;20034;-70
2023/04/22 09:40:49;;;;;;;4.95;3.03;;;19.40;1.00;;;;;;7365496;19;20018;-70
2023/04/22 09:43:20;;;;;;;5.70;3.70;;;19.50;1.00;;;;;;7390891;19;20063;-71
2023/04/22 09:45:50;;;;;;;5.95;3.25;;;19.80;1.00;;;;;;7367937;19;20569;-70
2023/04/22 09:48:22;;;;;;;3.65;3.05;;;19.80;1.00;;;;;;7368242;19;20082;-71
2023/04/22 09:50:53;;;;;;;3.40;3.05;;;19.70;1.00;;;;;;7365386;19;20090;-71
2023/04/22 09:53:23;;;;;;;6.35;3.10;;;20.10;1.00;;;;;;7367301;19;20021;-70
2023/04/22 09:55:57;;;;;;;3.05;2.72;;;20.40;1.00;;;;;;7369001;19;20018;-70
2023/04/22 09:58:26;;;;;;;4.63;2.40;;;20.50;1.00;;;;;;7388941;19;20098;-70
2023/04/22 10:00:59;;;;;;;2.78;2.47;;;20.50;1.00;;;;;;7364287;19;20021;-72
2023/04/22 10:03:29;;;;;;;5.03;3.53;;;20.60;1.00;;;;;;7366570;19;20011;-71
2023/04/22 10:05:59;;;;;;;5.00;2.42;;;20.50;1.00;;;;;;7367835;19;20007;-70
2023/04/22 10:08:31;;;;;;;3.20;2.72;;;19.90;1.00;;;;;;7368408;19;20411;-70
2023/04/22 10:11:04;;;;;;;4.68;2.85;;;19.90;1.00;;;;;;7363749;19;20025;-70
2023/04/22 10:13:35;;;;;;;3.60;2.60;;;20.10;1.00;;;;;;7388831;19;20028;-72
2023/04/22 10:16:05;;;;;;;6.63;2.60;;;20.40;1.00;;;;;;7367781;19;20490;-70
2023/04/22 10:18:36;;;;;;;3.45;2.35;;;20.60;1.00;;;;;;7368255;19;20010;-71
2023/04/22 10:21:07;;;;;;;4.13;2.15;;;20.70;1.00;;;;;;7365316;19;20018;-69
2023/04/22 10:23:37;;;;;;;2.90;1.90;;;20.90;1.00;;;;;;7367141;19;20020;-70
2023/04/22 10:26:10;;;;;;;2.58;2.17;;;20.70;1.00;;;;;;7367716;19;20052;-71
2023/04/22 10:28:45;;;;;;;3.38;2.05;;;21.10;1.00;;;;;;7384306;19;20522;-70
2023/04/22 10:31:23;;;;;;;3.83;2.05;;;20.70;1.00;;;;;;7362493;19;20006;-69
2023/04/22 10:34:11;;;;;;;3.55;2.10;;;20.60;1.00;;;;;;7363706;19;20022;-70
2023/04/22 10:36:58;;;;;;;2.55;2.10;;;20.80;1.00;;;;;;7364206;19;20103;-70
2023/04/22 10:39:30;;;;;;;5.55;3.63;;;20.80;1.00;;;;;;7361651;19;20427;-70
2023/04/22 10:42:14;;;;;;;5.82;2.85;;;21.00;1.00;;;;;;7363794;19;20824;-70
2023/04/22 10:44:49;;;;;;;2.88;2.03;;;21.30;1.00;;;;;;7363288;19;20015;-69
2023/04/22 10:47:27;;;;;;;3.60;1.90;;;21.70;1.00;;;;;;7366312;19;20027;-70
2023/04/22 10:50:22;;;;;;;3.65;2.38;;;21.90;1.00;;;;;;7361893;19;20035;-70
2023/04/22 10:52:54;;;;;;;2.55;2.05;;;21.60;1.00;;;;;;7366547;19;20522;-69
2023/04/22 10:55:25;;;;;;;5.35;2.20;;;21.90;1.00;;;;;;7385814;19;20098;-70
2023/04/22 10:57:57;;;;;;;3.97;2.33;;;22.10;1.00;;;;;;7365192;19;20024;-71
2023/04/22 11:00:31;;;;;;;3.95;2.55;;;22.20;1.00;;;;;;7360442;19;20018;-71
2023/04/22 11:03:17;;;;;;;2.20;1.80;;;22.40;1.00;;;;;;7361105;19;20440;-70
2023/04/22 11:05:48;;;;;;;9.02;2.20;;;22.20;1.00;;;;;;7365562;19;20021;-69
2023/04/22 11:08:22;;;;;;;5.95;1.70;;;22.40;1.00;;;;;;7366617;19;20010;-70
2023/04/22 11:10:54;;;;;;;2.38;1.60;;;22.50;1.00;;;;;;7361447;19;20029;-69
2023/04/22 11:13:26;;;;;;;3.13;1.80;;;22.40;1.00;;;;;;7385962;19;20006;-70
2023/04/22 11:15:57;;;;;;;2.58;1.75;;;22.80;1.00;;;;;;7370637;19;20014;-70
2023/04/22 11:18:28;;;;;;;2.20;1.77;;;22.70;1.00;;;;;;7373353;19;20011;-70
2023/04/22 11:20:58;;;;;;;3.17;1.52;;;22.90;1.00;;;;;;7370369;19;20015;-70
2023/04/22 11:23:30;;;;;;;3.10;1.50;;;23.00;1.00;;;;;;7372286;19;20415;-69
2023/04/22 11:26:02;;;;;;;3.55;1.40;;;22.30;1.00;;;;;;7371822;19;20021;-70
2023/04/22 11:28:35;;;;;;;2.22;1.50;;;22.30;1.00;;;;;;7392869;19;20537;-70
2023/04/22 11:31:09;;;;;;;3.15;1.50;;;22.70;1.00;;;;;;7366637;19;20010;-71
2023/04/22 11:33:40;;;;;;;2.25;1.38;;;23.00;1.00;;;;;;7369051;19;20304;-72
2023/04/22 11:36:13;;;;;;;1.58;1.40;;;23.10;1.00;;;;;;7370387;19;20010;-70
2023/04/22 11:38:44;;;;;;;1.65;1.50;;;22.90;1.00;;;;;;7369906;19;20469;-70
2023/04/22 11:41:22;;;;;;;2.85;1.48;;;22.60;1.00;;;;;;7365866;19;20356;-68
2023/04/22 11:43:56;;;;;;;2.90;1.40;;;23.10;1.00;;;;;;7366336;19;20190;-70
2023/04/22 11:46:37;;;;;;;1.90;1.42;;;23.60;1.00;;;;;;7390305;19;20142;-70
2023/04/22 11:49:15;;;;;;;3.50;2.35;;;23.80;1.00;;;;;;7364495;19;20014;-71
2023/04/22 11:51:56;;;;;;;2.08;1.40;;;23.80;1.00;;;;;;7365443;19;20029;-71
2023/04/22 11:54:33;;;;;;;2.83;1.50;;;23.80;1.00;;;;;;7367695;19;20491;-70
2023/04/22 11:57:05;;;;;;;2.25;1.50;;;23.70;1.00;;;;;;7368320;19;20015;-71
2023/04/22 11:59:37;;;;;;;2.55;1.60;;;23.80;1.00;;;;;;7365574;19;20015;-69
2023/04/22 12:02:08;;;;;;;3.45;1.55;;;23.60;1.00;;;;;;7370272;19;20077;-71
2023/04/22 12:04:41;;;;;;;3.58;1.52;;;23.60;1.00;;;;;;7391854;19;20611;-71
2023/04/22 12:07:11;;;;;;;4.72;1.70;;;23.60;1.00;;;;;;7372369;19;20012;-70
2023/04/22 12:09:42;;;;;;;3.28;1.42;;;23.80;1.00;;;;;;7366907;19;20010;-71
2023/04/22 12:12:11;;;;;;;2.95;1.50;;;23.70;1.00;;;;;;7370413;19;20010;-70
2023/04/22 12:14:47;;;;;;;5.30;2.08;;;24.10;1.00;;;;;;7369144;19;20370;-69
2023/04/22 12:17:18;;;;;;;1.95;1.50;;;24.00;1.00;;;;;;7371695;19;20030;-70
2023/04/22 12:19:49;;;;;;;4.10;1.70;;;24.20;1.00;;;;;;7367181;19;20019;-70
2023/04/22 12:22:26;;;;;;;3.92;1.65;;;24.10;1.00;;;;;;7392621;19;20092;-71
2023/04/22 12:24:59;;;;;;;5.53;1.92;;;23.60;1.00;;;;;;7369457;19;20021;-69
2023/04/22 12:27:30;;;;;;;2.88;1.40;;;23.50;1.00;;;;;;7368128;19;20010;-71
2023/04/22 12:30:02;;;;;;;3.65;1.60;;;23.50;1.00;;;;;;7366922;19;20006;-71
2023/04/22 12:32:33;;;;;;;1.75;1.45;;;23.40;1.00;;;;;;7367771;19;20010;-71
2023/04/22 12:35:03;;;;;;;2.85;1.40;;;23.10;1.00;;;;;;7368074;19;20022;-71
2023/04/22 12:37:33;;;;;;;2.88;1.67;;;23.00;1.00;;;;;;7391079;19;20013;-70
2023/04/22 12:40:05;;;;;;;2.85;1.50;;;23.10;1.00;;;;;;7365645;19;20117;-71
2023/04/22 12:42:35;;;;;;;3.72;1.65;;;23.20;1.00;;;;;;7370106;19;20128;-71
2023/04/22 12:45:09;;;;;;;3.67;1.70;;;22.90;1.00;;;;;;7367254;19;20011;-70
2023/04/22 12:47:39;;;;;;;4.00;1.63;;;22.90;1.00;;;;;;7370020;19;20037;-71
2023/04/22 12:50:10;;;;;;;2.85;1.58;;;23.00;1.00;;;;;;7366498;19;20018;-70
2023/04/22 12:52:40;;;;;;;4.07;1.38;;;22.90;1.00;;;;;;7386280;19;20077;-70
2023/04/22 12:55:10;;;;;;;5.68;1.83;;;22.70;1.00;;;;;;7364404;19;20625;-71
2023/04/22 12:57:40;;;;;;;3.28;1.50;;;22.70;1.00;;;;;;7368635;19;20019;-70
2023/04/22 13:00:15;;;;;;;3.47;1.60;;;23.30;1.00;;;;;;7362978;19;20006;-71
2023/04/22 13:02:45;;;;;;;3.60;1.58;;;23.70;1.00;;;;;;7364692;19;20014;-71
2023/04/22 13:05:15;;;;;;;4.38;1.50;;;23.60;1.00;;;;;;7365458;19;20498;-70
2023/04/22 13:07:46;;;;;;;3.70;1.80;;;23.40;1.00;;;;;;7372751;19;20044;-70